sensor_id;sensor_type;location;lat;lon;timestamp;temperature;humidity
36384;DHT22;22418;51.210;6.976;2023-08-31T00:01:19;15.00;99.90
36384;DHT22;22418;51.210;6.976;2023-08-31T00:03:49;15.00;99.90
36384;DHT22;22418;51.210;6.976;2023-08-31T00:06:20;15.00;99.90
36384;DHT22;22418;51.210;6.976;2023-08-31T00:08:52;15.00;99.90
36384;DHT22;22418;51.210;6.976;2023-08-31T00:11:27;15.10;99.90
36384;DHT22;22418;51.210;6.976;2023-08-31T00:13:58;15.10;99.90
36384;DHT22;22418;51.210;6.976;2023-08-31T00:16:31;15.00;99.90
36384;DHT22;22418;51.210;6.976;2023-08-31T00:19:03;15.10;99.90
36384;DHT22;22418;51.210;6.976;2023-08-31T00:21:34;15.00;99.90
36384;DHT22;22418;51.210;6.976;2023-08-31T00:24:05;15.10;99.90
36384;DHT22;22418;51.210;6.976;2023-08-31T00:26:36;15.10;99.90
36384;DHT22;22418;51.210;6.976;2023-08-31T00:29:12;15.00;99.90
36384;DHT22;22418;51.210;6.976;2023-08-31T00:31:46;15.00;99.90
36384;DHT22;22418;51.210;6.976;2023-08-31T00:34:19;15.00;99.90
36384;DHT22;22418;51.210;6.976;2023-08-31T00:36:50;14.90;99.90
36384;DHT22;22418;51.210;6.976;2023-08-31T00:39:20;14.90;99.90
36384;DHT22;22418;51.210;6.976;2023-08-31T00:41:52;14.90;99.90
36384;DHT22;22418;51.210;6.976;2023-08-31T00:44:23;14.90;99.90
36384;DHT22;22418;51.210;6.976;2023-08-31T00:46:54;14.90;99.90
36384;DHT22;22418;51.210;6.976;2023-08-31T00:49:25;14.90;99.90
36384;DHT22;22418;51.210;6.976;2023-08-31T00:51:56;14.80;99.90
36384;DHT22;22418;51.210;6.976;2023-08-31T00:54:27;14.80;99.90
36384;DHT22;22418;51.210;6.976;2023-08-31T00:56:58;14.70;99.90
36384;DHT22;22418;51.210;6.976;2023-08-31T00:59:29;14.80;99.90
36384;DHT22;22418;51.210;6.976;2023-08-31T01:02:14;14.80;99.90
36384;DHT22;22418;51.210;6.976;2023-08-31T01:04:48;14.70;99.90
36384;DHT22;22418;51.210;6.976;2023-08-31T01:07:54;14.70;99.90
36384;DHT22;22418;51.210;6.976;2023-08-31T01:13:03;14.70;99.90
36384;DHT22;22418;51.210;6.976;2023-08-31T01:15:45;14.70;99.90
36384;DHT22;22418;51.210;6.976;2023-08-31T01:18:18;14.70;99.90
36384;DHT22;22418;51.210;6.976;2023-08-31T01:20:58;14.70;99.90
36384;DHT22;22418;51.210;6.976;2023-08-31T01:26:17;14.70;99.90
36384;DHT22;22418;51.210;6.976;2023-08-31T01:28:48;14.70;99.90
36384;DHT22;22418;51.210;6.976;2023-08-31T01:31:19;14.60;99.90
36384;DHT22;22418;51.210;6.976;2023-08-31T01:33:50;14.60;99.90
36384;DHT22;22418;51.210;6.976;2023-08-31T01:36:29;14.70;99.90
36384;DHT22;22418;51.210;6.976;2023-08-31T01:41:46;14.70;99.90
36384;DHT22;22418;51.210;6.976;2023-08-31T01:44:19;14.70;99.90
36384;DHT22;22418;51.210;6.976;2023-08-31T01:46:52;14.70;99.90
36384;DHT22;22418;51.210;6.976;2023-08-31T01:49:26;14.60;99.90
36384;DHT22;22418;51.210;6.976;2023-08-31T01:51:56;14.60;99.90
36384;DHT22;22418;51.210;6.976;2023-08-31T01:54:27;14.50;99.90
36384;DHT22;22418;51.210;6.976;2023-08-31T01:56:58;14.50;99.90
36384;DHT22;22418;51.210;6.976;2023-08-31T01:59:28;14.50;99.90
36384;DHT22;22418;51.210;6.976;2023-08-31T02:01:59;14.50;99.90
36384;DHT22;22418;51.210;6.976;2023-08-31T02:04:29;14.50;99.90
36384;DHT22;22418;51.210;6.976;2023-08-31T02:07:01;14.50;99.90
36384;DHT22;22418;51.210;6.976;2023-08-31T02:09:31;14.40;99.90
36384;DHT22;22418;51.210;6.976;2023-08-31T02:12:02;14.30;99.90
36384;DHT22;22418;51.210;6.976;2023-08-31T02:14:32;14.30;99.90
36384;DHT22;22418;51.210;6.976;2023-08-31T02:17:03;14.30;99.90
36384;DHT22;22418;51.210;6.976;2023-08-31T02:19:34;14.40;99.90
36384;DHT22;22418;51.210;6.976;2023-08-31T02:22:04;14.30;99.90
36384;DHT22;22418;51.210;6.976;2023-08-31T02:24:35;14.30;99.90
36384;DHT22;22418;51.210;6.976;2023-08-31T02:27:05;14.20;99.90
36384;DHT22;22418;51.210;6.976;2023-08-31T02:29:39;14.30;99.90
36384;DHT22;22418;51.210;6.976;2023-08-31T02:32:09;14.20;99.90
36384;DHT22;22418;51.210;6.976;2023-08-31T02:34:40;14.40;99.90
36384;DHT22;22418;51.210;6.976;2023-08-31T02:37:10;14.30;99.90
36384;DHT22;22418;51.210;6.976;2023-08-31T02:39:41;14.30;99.90
36384;DHT22;22418;51.210;6.976;2023-08-31T02:42:13;14.30;99.90
36384;DHT22;22418;51.210;6.976;2023-08-31T02:44:44;14.30;99.90
36384;DHT22;22418;51.210;6.976;2023-08-31T02:47:14;14.40;99.90
36384;DHT22;22418;51.210;6.976;2023-08-31T02:49:45;14.30;99.90
36384;DHT22;22418;51.210;6.976;2023-08-31T02:52:15;14.30;99.90
36384;DHT22;22418;51.210;6.976;2023-08-31T02:54:46;14.30;99.90
36384;DHT22;22418;51.210;6.976;2023-08-31T02:57:16;14.30;99.90
36384;DHT22;22418;51.210;6.976;2023-08-31T02:59:50;14.30;99.90
36384;DHT22;22418;51.210;6.976;2023-08-31T03:02:24;14.30;99.90
36384;DHT22;22418;51.210;6.976;2023-08-31T03:04:55;14.30;99.90
36384;DHT22;22418;51.210;6.976;2023-08-31T03:07:26;14.30;99.90
36384;DHT22;22418;51.210;6.976;2023-08-31T03:09:56;14.30;99.90
36384;DHT22;22418;51.210;6.976;2023-08-31T03:12:27;14.30;99.90
36384;DHT22;22418;51.210;6.976;2023-08-31T03:14:57;14.30;99.90
36384;DHT22;22418;51.210;6.976;2023-08-31T03:17:28;14.30;99.90
36384;DHT22;22418;51.210;6.976;2023-08-31T03:19:58;14.40;99.90
36384;DHT22;22418;51.210;6.976;2023-08-31T03:22:29;14.30;99.90
36384;DHT22;22418;51.210;6.976;2023-08-31T03:25:00;14.30;99.90
36384;DHT22;22418;51.210;6.976;2023-08-31T03:27:30;14.30;99.90
36384;DHT22;22418;51.210;6.976;2023-08-31T03:30:01;14.40;99.90
36384;DHT22;22418;51.210;6.976;2023-08-31T03:32:32;14.40;99.90
36384;DHT22;22418;51.210;6.976;2023-08-31T03:35:02;14.30;99.90
36384;DHT22;22418;51.210;6.976;2023-08-31T03:37:34;14.30;99.90
36384;DHT22;22418;51.210;6.976;2023-08-31T03:40:05;14.40;99.90
36384;DHT22;22418;51.210;6.976;2023-08-31T03:42:40;14.30;99.90
36384;DHT22;22418;51.210;6.976;2023-08-31T03:45:11;14.40;99.90
36384;DHT22;22418;51.210;6.976;2023-08-31T03:47:42;14.40;99.90
36384;DHT22;22418;51.210;6.976;2023-08-31T03:50:12;14.40;99.90
36384;DHT22;22418;51.210;6.976;2023-08-31T03:52:43;14.50;99.90
36384;DHT22;22418;51.210;6.976;2023-08-31T03:55:13;14.50;99.90
36384;DHT22;22418;51.210;6.976;2023-08-31T03:57:44;14.50;99.90
36384;DHT22;22418;51.210;6.976;2023-08-31T04:00:15;14.50;99.90
36384;DHT22;22418;51.210;6.976;2023-08-31T04:02:46;14.60;99.90
36384;DHT22;22418;51.210;6.976;2023-08-31T04:05:17;14.60;99.90
36384;DHT22;22418;51.210;6.976;2023-08-31T04:07:47;14.50;99.90
36384;DHT22;22418;51.210;6.976;2023-08-31T04:10:18;14.50;99.90
36384;DHT22;22418;51.210;6.976;2023-08-31T04:12:49;14.60;99.90
36384;DHT22;22418;51.210;6.976;2023-08-31T04:15:20;14.50;99.90
36384;DHT22;22418;51.210;6.976;2023-08-31T04:17:51;14.50;99.90
36384;DHT22;22418;51.210;6.976;2023-08-31T04:20:21;14.50;99.90
36384;DHT22;22418;51.210;6.976;2023-08-31T04:22:52;14.50;99.90
36384;DHT22;22418;51.210;6.976;2023-08-31T04:25:23;14.50;99.90
36384;DHT22;22418;51.210;6.976;2023-08-31T04:27:53;14.50;99.90
36384;DHT22;22418;51.210;6.976;2023-08-31T04:30:24;14.50;99.90
36384;DHT22;22418;51.210;6.976;2023-08-31T04:32:56;14.50;99.90
36384;DHT22;22418;51.210;6.976;2023-08-31T04:35:26;14.50;99.90
36384;DHT22;22418;51.210;6.976;2023-08-31T04:37:58;14.50;99.90
36384;DHT22;22418;51.210;6.976;2023-08-31T04:40:28;14.50;99.90
36384;DHT22;22418;51.210;6.976;2023-08-31T04:43:02;14.50;99.90
36384;DHT22;22418;51.210;6.976;2023-08-31T04:45:33;14.50;99.90
36384;DHT22;22418;51.210;6.976;2023-08-31T04:48:03;14.50;99.90
36384;DHT22;22418;51.210;6.976;2023-08-31T04:50:34;14.50;99.90
36384;DHT22;22418;51.210;6.976;2023-08-31T04:53:05;14.60;99.90
36384;DHT22;22418;51.210;6.976;2023-08-31T04:55:35;14.50;99.90
36384;DHT22;22418;51.210;6.976;2023-08-31T04:58:06;14.50;99.90
36384;DHT22;22418;51.210;6.976;2023-08-31T05:00:36;14.50;99.90
36384;DHT22;22418;51.210;6.976;2023-08-31T05:03:07;14.50;99.90
36384;DHT22;22418;51.210;6.976;2023-08-31T05:05:37;14.50;99.90
36384;DHT22;22418;51.210;6.976;2023-08-31T05:08:08;14.50;99.90
36384;DHT22;22418;51.210;6.976;2023-08-31T05:10:39;14.60;99.90
36384;DHT22;22418;51.210;6.976;2023-08-31T05:13:09;14.60;99.90
36384;DHT22;22418;51.210;6.976;2023-08-31T05:15:40;14.70;99.90
36384;DHT22;22418;51.210;6.976;2023-08-31T05:18:10;14.80;99.90
36384;DHT22;22418;51.210;6.976;2023-08-31T05:20:45;14.80;99.90
36384;DHT22;22418;51.210;6.976;2023-08-31T05:23:16;14.90;99.90
36384;DHT22;22418;51.210;6.976;2023-08-31T05:25:46;14.80;99.90
36384;DHT22;22418;51.210;6.976;2023-08-31T05:28:17;15.00;99.90
36384;DHT22;22418;51.210;6.976;2023-08-31T05:30:49;14.90;99.90
36384;DHT22;22418;51.210;6.976;2023-08-31T05:33:20;15.00;99.90
36384;DHT22;22418;51.210;6.976;2023-08-31T05:35:52;15.00;99.90
36384;DHT22;22418;51.210;6.976;2023-08-31T05:38:23;15.00;99.90
36384;DHT22;22418;51.210;6.976;2023-08-31T05:40:53;15.10;99.90
36384;DHT22;22418;51.210;6.976;2023-08-31T05:43:24;15.10;99.90
36384;DHT22;22418;51.210;6.976;2023-08-31T05:45:54;15.10;99.90
36384;DHT22;22418;51.210;6.976;2023-08-31T05:48:25;15.10;99.90
36384;DHT22;22418;51.210;6.976;2023-08-31T05:50:56;15.10;99.90
36384;DHT22;22418;51.210;6.976;2023-08-31T05:53:26;15.00;99.90
36384;DHT22;22418;51.210;6.976;2023-08-31T05:55:58;15.20;99.90
36384;DHT22;22418;51.210;6.976;2023-08-31T05:58:35;15.30;99.90
36384;DHT22;22418;51.210;6.976;2023-08-31T06:01:06;15.40;99.90
36384;DHT22;22418;51.210;6.976;2023-08-31T06:03:37;15.40;99.90
36384;DHT22;22418;51.210;6.976;2023-08-31T06:06:07;15.50;99.90
36384;DHT22;22418;51.210;6.976;2023-08-31T06:08:38;15.60;99.90
36384;DHT22;22418;51.210;6.976;2023-08-31T06:11:09;15.60;99.90
36384;DHT22;22418;51.210;6.976;2023-08-31T06:13:40;15.50;99.90
36384;DHT22;22418;51.210;6.976;2023-08-31T06:16:10;15.50;99.90
36384;DHT22;22418;51.210;6.976;2023-08-31T06:18:41;15.70;99.90
36384;DHT22;22418;51.210;6.976;2023-08-31T06:21:11;15.60;99.90
36384;DHT22;22418;51.210;6.976;2023-08-31T06:23:42;15.70;99.90
36384;DHT22;22418;51.210;6.976;2023-08-31T06:26:13;15.80;99.90
36384;DHT22;22418;51.210;6.976;2023-08-31T06:28:46;15.90;99.90
36384;DHT22;22418;51.210;6.976;2023-08-31T06:31:16;16.00;99.90
36384;DHT22;22418;51.210;6.976;2023-08-31T06:33:47;16.00;99.90
36384;DHT22;22418;51.210;6.976;2023-08-31T06:36:17;16.10;99.90
36384;DHT22;22418;51.210;6.976;2023-08-31T06:38:48;16.20;99.90
36384;DHT22;22418;51.210;6.976;2023-08-31T06:41:19;16.30;99.90
36384;DHT22;22418;51.210;6.976;2023-08-31T06:43:49;16.30;99.90
36384;DHT22;22418;51.210;6.976;2023-08-31T06:46:20;16.50;99.90
36384;DHT22;22418;51.210;6.976;2023-08-31T06:48:50;16.60;99.90
36384;DHT22;22418;51.210;6.976;2023-08-31T06:51:21;16.90;99.90
36384;DHT22;22418;51.210;6.976;2023-08-31T06:53:52;17.10;99.90
36384;DHT22;22418;51.210;6.976;2023-08-31T06:56:22;17.40;99.90
36384;DHT22;22418;51.210;6.976;2023-08-31T06:58:53;17.60;99.90
36384;DHT22;22418;51.210;6.976;2023-08-31T07:01:23;18.10;99.90
36384;DHT22;22418;51.210;6.976;2023-08-31T07:03:54;18.20;99.90
36384;DHT22;22418;51.210;6.976;2023-08-31T07:06:24;18.20;99.90
36384;DHT22;22418;51.210;6.976;2023-08-31T07:08:55;18.60;99.90
36384;DHT22;22418;51.210;6.976;2023-08-31T07:11:25;18.80;99.90
36384;DHT22;22418;51.210;6.976;2023-08-31T07:13:57;19.00;99.90
36384;DHT22;22418;51.210;6.976;2023-08-31T07:16:29;19.00;99.90
36384;DHT22;22418;51.210;6.976;2023-08-31T07:19:00;19.30;99.90
36384;DHT22;22418;51.210;6.976;2023-08-31T07:21:30;19.40;99.90
36384;DHT22;22418;51.210;6.976;2023-08-31T07:24:01;19.50;99.90
36384;DHT22;22418;51.210;6.976;2023-08-31T07:26:31;19.50;99.90
36384;DHT22;22418;51.210;6.976;2023-08-31T07:29:02;19.60;99.90
36384;DHT22;22418;51.210;6.976;2023-08-31T07:31:34;19.50;99.90
36384;DHT22;22418;51.210;6.976;2023-08-31T07:34:05;19.70;99.90
36384;DHT22;22418;51.210;6.976;2023-08-31T07:36:35;19.90;99.90
36384;DHT22;22418;51.210;6.976;2023-08-31T07:39:06;19.90;99.90
36384;DHT22;22418;51.210;6.976;2023-08-31T07:41:37;20.10;99.90
36384;DHT22;22418;51.210;6.976;2023-08-31T07:44:08;20.20;99.90
36384;DHT22;22418;51.210;6.976;2023-08-31T07:46:38;20.50;99.90
36384;DHT22;22418;51.210;6.976;2023-08-31T07:49:09;20.70;99.90
36384;DHT22;22418;51.210;6.976;2023-08-31T07:51:40;20.90;99.90
36384;DHT22;22418;51.210;6.976;2023-08-31T07:54:10;21.10;99.90
36384;DHT22;22418;51.210;6.976;2023-08-31T07:56:41;21.30;99.90
36384;DHT22;22418;51.210;6.976;2023-08-31T07:59:12;21.50;99.90
36384;DHT22;22418;51.210;6.976;2023-08-31T08:01:42;21.70;99.90
36384;DHT22;22418;51.210;6.976;2023-08-31T08:04:13;21.70;99.90
36384;DHT22;22418;51.210;6.976;2023-08-31T08:06:44;21.90;99.90
36384;DHT22;22418;51.210;6.976;2023-08-31T08:09:14;21.90;99.90
36384;DHT22;22418;51.210;6.976;2023-08-31T08:11:46;21.90;99.90
36384;DHT22;22418;51.210;6.976;2023-08-31T08:14:16;22.00;99.90
36384;DHT22;22418;51.210;6.976;2023-08-31T08:16:47;22.20;99.90
36384;DHT22;22418;51.210;6.976;2023-08-31T08:19:24;22.40;99.90
36384;DHT22;22418;51.210;6.976;2023-08-31T08:21:54;22.70;99.90
36384;DHT22;22418;51.210;6.976;2023-08-31T08:24:25;22.80;99.90
36384;DHT22;22418;51.210;6.976;2023-08-31T08:26:56;22.90;99.90
36384;DHT22;22418;51.210;6.976;2023-08-31T08:29:26;23.10;99.90
36384;DHT22;22418;51.210;6.976;2023-08-31T08:31:57;23.20;99.90
36384;DHT22;22418;51.210;6.976;2023-08-31T08:34:27;23.40;99.90
36384;DHT22;22418;51.210;6.976;2023-08-31T08:36:58;23.40;99.90
36384;DHT22;22418;51.210;6.976;2023-08-31T08:39:29;23.40;99.90
36384;DHT22;22418;51.210;6.976;2023-08-31T08:41:59;23.30;99.90
36384;DHT22;22418;51.210;6.976;2023-08-31T08:44:32;23.40;99.90
36384;DHT22;22418;51.210;6.976;2023-08-31T08:47:03;23.30;99.90
36384;DHT22;22418;51.210;6.976;2023-08-31T08:49:34;23.30;99.90
36384;DHT22;22418;51.210;6.976;2023-08-31T08:52:06;23.30;99.90
36384;DHT22;22418;51.210;6.976;2023-08-31T08:54:47;23.30;99.90
36384;DHT22;22418;51.210;6.976;2023-08-31T08:57:19;23.40;99.90
36384;DHT22;22418;51.210;6.976;2023-08-31T08:59:49;23.30;99.90
36384;DHT22;22418;51.210;6.976;2023-08-31T09:02:20;23.30;99.90
36384;DHT22;22418;51.210;6.976;2023-08-31T09:04:50;23.40;99.90
36384;DHT22;22418;51.210;6.976;2023-08-31T09:07:24;23.40;99.90
36384;DHT22;22418;51.210;6.976;2023-08-31T09:09:55;23.50;99.90
36384;DHT22;22418;51.210;6.976;2023-08-31T09:12:26;23.60;99.90
36384;DHT22;22418;51.210;6.976;2023-08-31T09:15:00;23.60;99.90
36384;DHT22;22418;51.210;6.976;2023-08-31T09:17:39;23.70;99.90
36384;DHT22;22418;51.210;6.976;2023-08-31T09:20:10;23.50;99.90
36384;DHT22;22418;51.210;6.976;2023-08-31T09:22:43;23.30;99.90
36384;DHT22;22418;51.210;6.976;2023-08-31T09:25:15;23.00;99.90
36384;DHT22;22418;51.210;6.976;2023-08-31T09:27:45;22.70;99.90
36384;DHT22;22418;51.210;6.976;2023-08-31T09:30:16;22.60;99.90
36384;DHT22;22418;51.210;6.976;2023-08-31T09:32:52;22.60;99.90
36384;DHT22;22418;51.210;6.976;2023-08-31T09:35:23;22.60;99.90
36384;DHT22;22418;51.210;6.976;2023-08-31T09:37:55;22.60;99.90
36384;DHT22;22418;51.210;6.976;2023-08-31T09:40:26;22.40;99.90
36384;DHT22;22418;51.210;6.976;2023-08-31T09:42:57;22.10;99.90
36384;DHT22;22418;51.210;6.976;2023-08-31T09:45:31;21.90;99.90
36384;DHT22;22418;51.210;6.976;2023-08-31T09:48:04;21.60;99.90
36384;DHT22;22418;51.210;6.976;2023-08-31T09:50:35;21.20;99.90
36384;DHT22;22418;51.210;6.976;2023-08-31T09:53:08;21.00;99.90
36384;DHT22;22418;51.210;6.976;2023-08-31T09:55:40;20.70;99.90
36384;DHT22;22418;51.210;6.976;2023-08-31T09:58:11;20.60;99.90
36384;DHT22;22418;51.210;6.976;2023-08-31T10:00:43;20.40;99.90
36384;DHT22;22418;51.210;6.976;2023-08-31T10:03:14;20.30;99.90
36384;DHT22;22418;51.210;6.976;2023-08-31T10:05:49;20.30;99.90
36384;DHT22;22418;51.210;6.976;2023-08-31T10:08:20;20.30;99.90
36384;DHT22;22418;51.210;6.976;2023-08-31T10:10:51;20.30;99.90
36384;DHT22;22418;51.210;6.976;2023-08-31T10:13:26;20.30;99.90
36384;DHT22;22418;51.210;6.976;2023-08-31T10:15:59;20.30;99.90
36384;DHT22;22418;51.210;6.976;2023-08-31T10:18:30;20.40;99.90
36384;DHT22;22418;51.210;6.976;2023-08-31T10:21:02;20.30;99.90
36384;DHT22;22418;51.210;6.976;2023-08-31T10:23:33;20.40;99.90
36384;DHT22;22418;51.210;6.976;2023-08-31T10:26:06;20.50;99.90
36384;DHT22;22418;51.210;6.976;2023-08-31T10:28:41;20.60;99.90
36384;DHT22;22418;51.210;6.976;2023-08-31T10:31:17;20.40;99.90
36384;DHT22;22418;51.210;6.976;2023-08-31T10:34:07;20.30;99.90
36384;DHT22;22418;51.210;6.976;2023-08-31T10:36:44;20.10;99.90
36384;DHT22;22418;51.210;6.976;2023-08-31T10:39:16;20.00;99.90
36384;DHT22;22418;51.210;6.976;2023-08-31T10:41:55;19.90;99.90
36384;DHT22;22418;51.210;6.976;2023-08-31T10:44:27;19.90;99.90
36384;DHT22;22418;51.210;6.976;2023-08-31T10:47:03;19.80;99.90
36384;DHT22;22418;51.210;6.976;2023-08-31T10:49:37;19.80;99.90
36384;DHT22;22418;51.210;6.976;2023-08-31T10:52:18;19.70;99.90
36384;DHT22;22418;51.210;6.976;2023-08-31T10:54:54;19.70;99.90
36384;DHT22;22418;51.210;6.976;2023-08-31T10:57:31;19.80;99.90
36384;DHT22;22418;51.210;6.976;2023-08-31T11:00:02;19.90;99.90
36384;DHT22;22418;51.210;6.976;2023-08-31T11:02:47;19.80;99.90
36384;DHT22;22418;51.210;6.976;2023-08-31T11:05:18;19.80;99.90
36384;DHT22;22418;51.210;6.976;2023-08-31T11:07:50;19.90;99.90
36384;DHT22;22418;51.210;6.976;2023-08-31T11:10:24;19.90;99.90
36384;DHT22;22418;51.210;6.976;2023-08-31T11:12:57;19.90;99.90
36384;DHT22;22418;51.210;6.976;2023-08-31T11:15:28;20.00;99.90
36384;DHT22;22418;51.210;6.976;2023-08-31T11:18:02;20.20;99.90
36384;DHT22;22418;51.210;6.976;2023-08-31T11:20:34;20.40;99.90
36384;DHT22;22418;51.210;6.976;2023-08-31T11:23:05;20.50;99.90
36384;DHT22;22418;51.210;6.976;2023-08-31T11:25:36;20.60;99.90
36384;DHT22;22418;51.210;6.976;2023-08-31T11:28:06;20.70;99.90
36384;DHT22;22418;51.210;6.976;2023-08-31T11:30:38;20.70;99.90
36384;DHT22;22418;51.210;6.976;2023-08-31T11:33:09;20.70;99.90
36384;DHT22;22418;51.210;6.976;2023-08-31T11:35:44;20.70;99.90
36384;DHT22;22418;51.210;6.976;2023-08-31T11:38:16;20.70;99.90
36384;DHT22;22418;51.210;6.976;2023-08-31T11:40:47;20.70;99.90
36384;DHT22;22418;51.210;6.976;2023-08-31T11:43:19;20.50;99.90
36384;DHT22;22418;51.210;6.976;2023-08-31T11:45:50;20.40;99.90
36384;DHT22;22418;51.210;6.976;2023-08-31T11:48:21;20.40;99.90
36384;DHT22;22418;51.210;6.976;2023-08-31T11:50:55;20.30;99.90
36384;DHT22;22418;51.210;6.976;2023-08-31T11:53:26;20.20;99.90
36384;DHT22;22418;51.210;6.976;2023-08-31T11:55:57;20.10;99.90
36384;DHT22;22418;51.210;6.976;2023-08-31T11:58:27;19.90;99.90
36384;DHT22;22418;51.210;6.976;2023-08-31T12:00:59;19.90;99.90
36384;DHT22;22418;51.210;6.976;2023-08-31T12:03:42;19.90;99.90
36384;DHT22;22418;51.210;6.976;2023-08-31T12:06:17;20.00;99.90
36384;DHT22;22418;51.210;6.976;2023-08-31T12:08:51;20.00;99.90
36384;DHT22;22418;51.210;6.976;2023-08-31T12:11:21;20.00;99.90
36384;DHT22;22418;51.210;6.976;2023-08-31T12:13:52;20.20;99.90
36384;DHT22;22418;51.210;6.976;2023-08-31T12:16:22;20.20;99.90
36384;DHT22;22418;51.210;6.976;2023-08-31T12:18:53;20.30;99.90
36384;DHT22;22418;51.210;6.976;2023-08-31T12:21:28;20.30;99.90
36384;DHT22;22418;51.210;6.976;2023-08-31T12:24:05;20.40;99.90
36384;DHT22;22418;51.210;6.976;2023-08-31T12:26:36;20.30;99.90
36384;DHT22;22418;51.210;6.976;2023-08-31T12:29:07;20.30;99.90
36384;DHT22;22418;51.210;6.976;2023-08-31T12:31:37;20.20;99.90
36384;DHT22;22418;51.210;6.976;2023-08-31T12:34:08;20.20;99.90
36384;DHT22;22418;51.210;6.976;2023-08-31T12:36:39;20.10;99.90
36384;DHT22;22418;51.210;6.976;2023-08-31T12:39:11;20.20;99.90
36384;DHT22;22418;51.210;6.976;2023-08-31T12:41:42;20.30;99.90
36384;DHT22;22418;51.210;6.976;2023-08-31T12:44:12;20.50;99.90
36384;DHT22;22418;51.210;6.976;2023-08-31T12:46:43;20.60;99.90
36384;DHT22;22418;51.210;6.976;2023-08-31T12:49:14;20.60;99.90
36384;DHT22;22418;51.210;6.976;2023-08-31T12:51:44;20.50;99.90
36384;DHT22;22418;51.210;6.976;2023-08-31T12:54:15;20.50;99.90
36384;DHT22;22418;51.210;6.976;2023-08-31T12:56:46;20.40;99.90
36384;DHT22;22418;51.210;6.976;2023-08-31T12:59:16;20.40;99.90
36384;DHT22;22418;51.210;6.976;2023-08-31T13:01:47;20.30;99.90
36384;DHT22;22418;51.210;6.976;2023-08-31T13:04:17;20.30;99.90
36384;DHT22;22418;51.210;6.976;2023-08-31T13:06:48;20.40;99.90
36384;DHT22;22418;51.210;6.976;2023-08-31T13:09:19;20.40;99.90
36384;DHT22;22418;51.210;6.976;2023-08-31T13:11:49;20.40;99.90
36384;DHT22;22418;51.210;6.976;2023-08-31T13:14:20;20.50;99.90
36384;DHT22;22418;51.210;6.976;2023-08-31T13:16:50;20.40;99.90
36384;DHT22;22418;51.210;6.976;2023-08-31T13:19:21;20.40;99.90
36384;DHT22;22418;51.210;6.976;2023-08-31T13:21:52;20.70;99.90
36384;DHT22;22418;51.210;6.976;2023-08-31T13:24:26;20.80;99.90
36384;DHT22;22418;51.210;6.976;2023-08-31T13:26:57;20.80;99.90
36384;DHT22;22418;51.210;6.976;2023-08-31T13:29:27;20.90;99.90
36384;DHT22;22418;51.210;6.976;2023-08-31T13:31:58;20.80;99.90
36384;DHT22;22418;51.210;6.976;2023-08-31T13:34:28;20.80;99.90
36384;DHT22;22418;51.210;6.976;2023-08-31T13:36:59;20.70;99.90
36384;DHT22;22418;51.210;6.976;2023-08-31T13:39:31;20.70;99.90
36384;DHT22;22418;51.210;6.976;2023-08-31T13:42:01;20.60;99.90
36384;DHT22;22418;51.210;6.976;2023-08-31T13:44:34;20.50;99.90
36384;DHT22;22418;51.210;6.976;2023-08-31T13:47:05;20.50;99.90
36384;DHT22;22418;51.210;6.976;2023-08-31T13:49:36;20.60;99.90
36384;DHT22;22418;51.210;6.976;2023-08-31T13:52:07;20.60;99.90
36384;DHT22;22418;51.210;6.976;2023-08-31T13:54:39;20.60;99.90
36384;DHT22;22418;51.210;6.976;2023-08-31T13:57:10;20.50;99.90
36384;DHT22;22418;51.210;6.976;2023-08-31T13:59:40;20.60;99.90
36384;DHT22;22418;51.210;6.976;2023-08-31T14:02:11;20.60;99.90
36384;DHT22;22418;51.210;6.976;2023-08-31T14:04:41;20.70;99.90
36384;DHT22;22418;51.210;6.976;2023-08-31T14:07:19;21.10;99.90
36384;DHT22;22418;51.210;6.976;2023-08-31T14:09:50;21.10;99.90
36384;DHT22;22418;51.210;6.976;2023-08-31T14:12:21;21.10;99.90
36384;DHT22;22418;51.210;6.976;2023-08-31T14:14:52;21.10;99.90
36384;DHT22;22418;51.210;6.976;2023-08-31T14:17:23;20.90;99.90
36384;DHT22;22418;51.210;6.976;2023-08-31T14:19:54;20.80;99.90
36384;DHT22;22418;51.210;6.976;2023-08-31T14:22:24;20.60;99.90
36384;DHT22;22418;51.210;6.976;2023-08-31T14:24:55;20.50;99.90
36384;DHT22;22418;51.210;6.976;2023-08-31T14:27:26;20.40;99.90
36384;DHT22;22418;51.210;6.976;2023-08-31T14:29:57;20.50;99.90
36384;DHT22;22418;51.210;6.976;2023-08-31T14:32:28;20.50;99.90
36384;DHT22;22418;51.210;6.976;2023-08-31T14:35:01;20.70;99.90
36384;DHT22;22418;51.210;6.976;2023-08-31T14:37:34;20.80;99.90
36384;DHT22;22418;51.210;6.976;2023-08-31T14:40:06;21.10;99.90
36384;DHT22;22418;51.210;6.976;2023-08-31T14:42:37;21.20;99.90
36384;DHT22;22418;51.210;6.976;2023-08-31T14:45:08;21.20;99.90
36384;DHT22;22418;51.210;6.976;2023-08-31T14:47:38;21.10;99.90
36384;DHT22;22418;51.210;6.976;2023-08-31T14:50:09;20.90;99.90
36384;DHT22;22418;51.210;6.976;2023-08-31T14:52:39;20.70;99.90
36384;DHT22;22418;51.210;6.976;2023-08-31T14:55:10;20.60;99.90
36384;DHT22;22418;51.210;6.976;2023-08-31T14:57:41;20.40;99.90
36384;DHT22;22418;51.210;6.976;2023-08-31T15:00:17;20.30;99.90
36384;DHT22;22418;51.210;6.976;2023-08-31T15:02:49;20.10;99.90
36384;DHT22;22418;51.210;6.976;2023-08-31T15:05:19;20.00;99.90
36384;DHT22;22418;51.210;6.976;2023-08-31T15:07:50;19.90;99.90
36384;DHT22;22418;51.210;6.976;2023-08-31T15:10:20;19.90;99.90
36384;DHT22;22418;51.210;6.976;2023-08-31T15:12:51;19.80;99.90
36384;DHT22;22418;51.210;6.976;2023-08-31T15:15:26;19.80;99.90
36384;DHT22;22418;51.210;6.976;2023-08-31T15:17:56;19.90;99.90
36384;DHT22;22418;51.210;6.976;2023-08-31T15:20:27;19.80;99.90
36384;DHT22;22418;51.210;6.976;2023-08-31T15:22:57;19.80;99.90
36384;DHT22;22418;51.210;6.976;2023-08-31T15:25:28;19.80;99.90
36384;DHT22;22418;51.210;6.976;2023-08-31T15:27:59;19.70;99.90
36384;DHT22;22418;51.210;6.976;2023-08-31T15:30:30;19.70;99.90
36384;DHT22;22418;51.210;6.976;2023-08-31T15:33:12;19.70;99.90
36384;DHT22;22418;51.210;6.976;2023-08-31T15:35:43;19.70;99.90
36384;DHT22;22418;51.210;6.976;2023-08-31T15:38:14;19.70;99.90
36384;DHT22;22418;51.210;6.976;2023-08-31T15:40:47;19.60;99.90
36384;DHT22;22418;51.210;6.976;2023-08-31T15:43:18;19.50;99.90
36384;DHT22;22418;51.210;6.976;2023-08-31T15:45:49;19.20;99.90
36384;DHT22;22418;51.210;6.976;2023-08-31T15:48:19;19.00;99.90
36384;DHT22;22418;51.210;6.976;2023-08-31T15:50:50;18.80;99.90
36384;DHT22;22418;51.210;6.976;2023-08-31T15:53:21;18.70;99.90
36384;DHT22;22418;51.210;6.976;2023-08-31T15:55:52;18.80;99.90
36384;DHT22;22418;51.210;6.976;2023-08-31T15:58:22;18.60;99.90
36384;DHT22;22418;51.210;6.976;2023-08-31T16:00:56;18.60;99.90
36384;DHT22;22418;51.210;6.976;2023-08-31T16:03:33;18.70;99.90
36384;DHT22;22418;51.210;6.976;2023-08-31T16:06:05;18.60;99.90